»·PEaware :: UAL1058 KMFR-KSFO

UAL1058 :: KMFR-KSFO

FLIGHT INFORMATION

Flight Status: Arrived
Operator:
United Airlines
More flights by this operator :: More flights under this callsign
Pilot: Anonymous 12234 (12234)
Aircraft: BOEING 737-200
(B732)
More flights by this aircraft type
Origin: KMFR Rogue Valley Intl-Medford
United States
Destination: KSFO San Francisco Intl
United States
More flights between these airports :: More routes between these airports
Route: +JKSN1 OED J1 RBL GOLDN7
File this flight plan on PilotEdge
Remarks:
Altitude:
(Current/Filed)
35,000ft
Speed:
(Current/Filed)
428kts
Departed: 18-Jan-18 12:07 PM
Arrived: 18-Jan-18 01:25 PM
Distance/Time
Traveled:
286nm/1:18
Distance/Time
To Go:
Arrived

Flight Plot

Page will automatically refresh every two minutes.

Flight plan parsing failed; only flown route is shown


Map Options




Map Legend


Flown Route
Filed Route
Departure Airport
Arrival Airport
Navaid (VOR, NDB)
Fix

Horizontal Profiles

Position Reports

Time Latitude Longitude Heading Altitude Ground
Speed
18-Jan-18 11:49 42.368488 -122.873233 248 1342ft 0kts
18-Jan-18 11:50 42.368488 -122.873233 248 1342ft 0kts
18-Jan-18 11:51 42.368488 -122.873233 248 1342ft 0kts
18-Jan-18 11:52 42.368488 -122.873233 248 1342ft 0kts
18-Jan-18 11:53 42.368488 -122.873233 248 1342ft 0kts
18-Jan-18 11:54 42.368488 -122.873233 248 1342ft 0kts
18-Jan-18 11:55 42.368488 -122.873233 248 1342ft 0kts
18-Jan-18 11:56 42.368488 -122.873233 248 1342ft 0kts
18-Jan-18 11:57 42.368488 -122.873233 248 1342ft 0kts
18-Jan-18 11:58 42.368488 -122.873233 248 1342ft 0kts
18-Jan-18 11:59 42.368488 -122.873233 248 1342ft 0kts
18-Jan-18 12:00 42.368488 -122.873233 248 1342ft 0kts
18-Jan-18 12:01 42.368488 -122.873233 248 1342ft 0kts
18-Jan-18 12:02 42.368488 -122.873233 248 1342ft 0kts
18-Jan-18 12:03 42.368487 -122.873237 248 1342ft 0kts
18-Jan-18 12:04 42.368909 -122.872760 216 1342ft 2kts
18-Jan-18 12:05 42.369045 -122.872513 248 1342ft 0kts
18-Jan-18 12:06 42.369045 -122.872514 248 1342ft 0kts
18-Jan-18 12:07 42.369045 -122.872514 248 1342ft 0kts
18-Jan-18 12:08 42.369210 -122.872533 16 1342ft 7kts
18-Jan-18 12:09 42.375004 -122.874878 338 1342ft 24kts
18-Jan-18 12:10 42.380914 -122.877998 338 1342ft 21kts
18-Jan-18 12:11 42.385449 -122.880332 353 1342ft 1kts
18-Jan-18 12:12 42.385608 -122.878804 163 1342ft 8kts
18-Jan-18 12:13 42.379822 -122.875795 158 1342ft 108kts
18-Jan-18 12:14 42.340669 -122.863276 214 3583ft 159kts
18-Jan-18 12:15 42.359540 -122.916913 335 5310ft 242kts
18-Jan-18 12:16 42.424302 -122.931940 13 8664ft 256kts
18-Jan-18 12:17 42.458433 -122.857558 100 11008ft 324kts
18-Jan-18 12:18 42.412190 -122.742938 162 13033ft 345kts
18-Jan-18 12:19 42.330646 -122.708705 174 16857ft 299kts
18-Jan-18 12:20 42.256208 -122.646920 163 18889ft 325kts
18-Jan-18 12:21 42.173819 -122.627184 183 20813ft 304kts
18-Jan-18 12:22 42.089190 -122.612080 183 22298ft 310kts
18-Jan-18 12:23 42.008706 -122.596805 184 23547ft 315kts
18-Jan-18 12:24 41.921689 -122.580061 184 24750ft 320kts
18-Jan-18 12:25 41.838884 -122.564449 184 25816ft 326kts
18-Jan-18 12:26 41.748930 -122.547330 184 26873ft 332kts
18-Jan-18 12:27 41.657423 -122.529520 184 27806ft 337kts
18-Jan-18 12:28 41.564232 -122.511812 184 28609ft 342kts
18-Jan-18 12:29 41.472002 -122.494211 184 29314ft 347kts
18-Jan-18 12:30 41.376331 -122.475670 184 29958ft 351kts
18-Jan-18 12:31 41.279944 -122.457366 184 30435ft 356kts
18-Jan-18 12:32 41.181733 -122.439134 184 30904ft 361kts
18-Jan-18 12:33 41.081971 -122.419814 183 31319ft 365kts
18-Jan-18 12:34 40.981228 -122.400692 183 31699ft 369kts
18-Jan-18 12:35 40.882467 -122.382244 183 32019ft 372kts
18-Jan-18 12:36 40.786635 -122.364338 184 33049ft 361kts
18-Jan-18 12:37 40.706097 -122.349213 185 34235ft 342kts
18-Jan-18 12:38 40.604959 -122.329624 185 34956ft 336kts
18-Jan-18 12:39 40.528320 -122.315555 185 35047ft 344kts
18-Jan-18 12:40 40.432759 -122.297864 184 35046ft 355kts
18-Jan-18 12:41 40.320510 -122.277026 184 35042ft 362kts
18-Jan-18 12:42 40.237456 -122.261662 184 35041ft 366kts
18-Jan-18 12:43 40.136990 -122.243531 188 35062ft 363kts
18-Jan-18 12:44 40.037162 -122.243452 196 35070ft 354kts
18-Jan-18 12:45 39.941708 -122.265508 203 35051ft 342kts
18-Jan-18 12:46 39.854207 -122.297494 210 35038ft 336kts
18-Jan-18 12:47 39.768566 -122.338284 205 35067ft 339kts
18-Jan-18 12:48 39.676979 -122.371527 203 35076ft 348kts
18-Jan-18 12:49 39.587965 -122.401065 202 35074ft 358kts
18-Jan-18 12:50 39.491639 -122.434753 207 35078ft 360kts
18-Jan-18 12:51 39.395467 -122.472316 202 35069ft 372kts
18-Jan-18 12:52 39.294927 -122.504741 201 35067ft 379kts
18-Jan-18 12:53 39.193356 -122.535860 201 35061ft 373kts
18-Jan-18 12:54 39.096663 -122.564815 201 33265ft 359kts
18-Jan-18 12:55 39.001940 -122.593635 201 31008ft 349kts
18-Jan-18 12:56 38.905552 -122.622837 201 27834ft 358kts
18-Jan-18 12:57 38.815514 -122.649200 200 25563ft 350kts
18-Jan-18 12:58 38.725653 -122.676389 200 24121ft 337kts
18-Jan-18 12:59 38.634044 -122.703921 200 24109ft 346kts
18-Jan-18 13:00 38.541257 -122.731482 199 23742ft 336kts
18-Jan-18 13:01 38.450208 -122.752696 199 21507ft 328kts
18-Jan-18 13:02 38.363465 -122.778326 199 19461ft 315kts
18-Jan-18 13:03 38.281183 -122.804052 199 16649ft 303kts
18-Jan-18 13:04 38.200753 -122.829421 198 13920ft 297kts
18-Jan-18 13:05 38.120147 -122.833238 173 12064ft 302kts
18-Jan-18 13:06 38.039615 -122.804881 165 10962ft 299kts
18-Jan-18 13:07 37.968937 -122.751017 147 10968ft 311kts
18-Jan-18 13:08 37.900756 -122.677646 147 10967ft 333kts
18-Jan-18 13:09 37.832095 -122.604904 147 10967ft 325kts
18-Jan-18 13:10 37.764367 -122.533337 147 10991ft 315kts
18-Jan-18 13:11 37.698309 -122.463715 148 10990ft 304kts
18-Jan-18 13:12 37.640466 -122.391792 140 10989ft 283kts
18-Jan-18 13:13 37.583695 -122.334488 153 9693ft 282kts
18-Jan-18 13:14 37.526795 -122.286058 153 8429ft 276kts
18-Jan-18 13:15 37.466041 -122.239843 153 7035ft 273kts
18-Jan-18 13:16 37.413873 -122.182719 113 5973ft 263kts
18-Jan-18 13:17 37.388564 -122.104531 113 5933ft 231kts
18-Jan-18 13:18 37.364298 -122.030436 113 5939ft 232kts
18-Jan-18 13:19 37.339914 -121.959390 113 5938ft 234kts
18-Jan-18 13:20 37.347797 -121.886616 28 5967ft 259kts
18-Jan-18 13:21 37.416660 -121.881244 323 5941ft 253kts
18-Jan-18 13:22 37.450047 -121.953801 283 5953ft 270kts
18-Jan-18 13:23 37.468697 -122.019717 296 5942ft 266kts
18-Jan-18 13:24 37.491853 -122.074431 297 5771ft 232kts
18-Jan-18 13:25 37.518383 -122.134775 295 4315ft 226kts
18-Jan-18 13:26 37.544988 -122.201120 295 2779ft 200kts
18-Jan-18 13:27 37.567325 -122.252676 295 1744ft 138kts
18-Jan-18 13:28 37.585622 -122.295989 294 1094ft 138kts
18-Jan-18 13:29 37.603412 -122.338396 292 440ft 135kts
18-Jan-18 13:30 37.617648 -122.372622 297 22ft 50kts
18-Jan-18 13:31 37.618912 -122.379559 271 22ft 10kts
18-Jan-18 13:32 37.618886 -122.382721 215 22ft 9kts
18-Jan-18 13:33 37.618824 -122.383819 296 22ft 0kts
18-Jan-18 13:34 37.618824 -122.383819 296 22ft 0kts
18-Jan-18 13:35 37.618824 -122.383819 296 22ft 0kts
18-Jan-18 13:36 37.618824 -122.383819 296 22ft 0kts
18-Jan-18 13:37 37.618824 -122.383819 296 22ft 0kts
18-Jan-18 13:38 37.618824 -122.383819 296 22ft 0kts
18-Jan-18 13:39 37.618824 -122.383819 296 22ft 0kts
18-Jan-18 13:40 37.618824 -122.383819 296 22ft 0kts
18-Jan-18 13:41 37.618824 -122.383819 296 22ft 0kts
18-Jan-18 13:42 37.618824 -122.383819 296 22ft 0kts
18-Jan-18 13:43 37.618824 -122.383819 296 22ft 0kts
18-Jan-18 13:44 37.618824 -122.383819 296 22ft 0kts
18-Jan-18 13:45 37.618824 -122.383819 296 22ft 0kts

Navigation Log

Ident Type
Flight plan parsing failed, navigation log unavailable